Time;durP1;ratioP1;P1;durP2;ratioP2;P2;SDS_P1;SDS_P2;PMS_P1;PMS_P2;Temp;Humidity;BMP_temperature;BMP_pressure;BME280_temperature;BME280_humidity;BME280_pressure;Samples;Min_cycle;Max_cycle;Signal;HPM_P1;HPM_P2
2023/04/20 00:00:44;;;;;;;11.97;10.73;;;;;;;;;;5074592;28;20946;-61
2023/04/20 00:03:11;;;;;;;13.40;11.43;;;;;;;;;;5074432;28;20508;-61
2023/04/20 00:05:37;;;;;;;12.70;11.40;;;;;;;;;;5074056;28;20414;-61
2023/04/20 00:08:06;;;;;;;11.43;10.43;;;;;;;;;;5074376;28;20885;-62
2023/04/20 00:10:31;;;;;;;11.30;10.30;;;;;;;;;;5074478;28;20484;-62
2023/04/20 00:12:57;;;;;;;9.63;8.70;;;;;;;;;;5074391;28;20429;-61
2023/04/20 00:15:26;;;;;;;8.93;8.23;;;;;;;;;;5074157;28;20441;-61
2023/04/20 00:17:52;;;;;;;9.50;8.60;;;;;;;;;;5073156;28;20497;-62
2023/04/20 00:20:18;;;;;;;9.30;8.40;;;;;;;;;;5074082;28;20522;-60
2023/04/20 00:22:44;;;;;;;8.77;8.07;;;;;;;;;;5072981;28;20462;-61
2023/04/20 00:25:10;;;;;;;8.37;7.77;;;;;;;;;;5073875;28;20420;-61
2023/04/20 00:27:36;;;;;;;9.37;8.57;;;;;;;;;;5074477;28;20410;-61
2023/04/20 00:30:02;;;;;;;8.63;7.90;;;;;;;;;;5073838;28;20425;-61
2023/04/20 00:32:29;;;;;;;8.43;7.73;;;;;;;;;;5074191;28;20474;-61
2023/04/20 00:34:55;;;;;;;7.80;7.10;;;;;;;;;;5074028;28;20409;-61
2023/04/20 00:37:21;;;;;;;6.87;6.47;;;;;;;;;;5074024;28;20480;-61
2023/04/20 00:39:47;;;;;;;8.10;6.30;;;;;;;;;;5073970;28;20406;-61
2023/04/20 00:42:13;;;;;;;7.57;6.83;;;;;;;;;;5073757;28;20869;-61
2023/04/20 00:44:41;;;;;;;7.00;6.43;;;;;;;;;;5073873;28;20504;-62
2023/04/20 00:47:07;;;;;;;7.23;6.73;;;;;;;;;;5073747;28;20772;-61
2023/04/20 00:49:33;;;;;;;7.30;6.80;;;;;;;;;;5073855;28;20425;-61
2023/04/20 00:51:59;;;;;;;7.30;6.57;;;;;;;;;;5073622;28;20960;-61
2023/04/20 00:54:29;;;;;;;7.80;7.20;;;;;;;;;;5073627;28;20483;-61
2023/04/20 00:56:59;;;;;;;8.10;7.40;;;;;;;;;;5073492;28;20519;-61
2023/04/20 00:59:25;;;;;;;8.37;7.77;;;;;;;;;;5073359;28;20967;-61
2023/04/20 01:01:51;;;;;;;8.80;8.00;;;;;;;;;;5073205;28;21009;-61
2023/04/20 01:04:17;;;;;;;8.27;7.67;;;;;;;;;;5073501;28;20497;-63
2023/04/20 01:06:46;;;;;;;8.97;7.77;;;;;;;;;;5073695;28;20421;-62
2023/04/20 01:09:11;;;;;;;9.87;8.67;;;;;;;;;;5073131;28;20411;-61
2023/04/20 01:11:38;;;;;;;8.03;7.43;;;;;;;;;;5072024;28;20537;-60
2023/04/20 01:14:04;;;;;;;9.10;8.30;;;;;;;;;;5073218;28;20467;-61
2023/04/20 01:16:30;;;;;;;9.30;8.50;;;;;;;;;;5073184;28;20940;-61
2023/04/20 01:18:57;;;;;;;9.30;8.47;;;;;;;;;;5072891;28;20509;-61
2023/04/20 01:21:23;;;;;;;10.17;9.27;;;;;;;;;;5073088;28;20893;-61
2023/04/20 01:23:49;;;;;;;9.50;8.47;;;;;;;;;;5073000;28;20620;-61
2023/04/20 01:26:16;;;;;;;9.50;8.70;;;;;;;;;;5073100;28;20449;-61
2023/04/20 01:28:42;;;;;;;9.40;8.60;;;;;;;;;;5072803;28;20413;-61
2023/04/20 01:31:09;;;;;;;11.10;10.10;;;;;;;;;;5072874;28;21011;-61
2023/04/20 01:33:35;;;;;;;10.30;9.43;;;;;;;;;;5072651;28;20476;-61
2023/04/20 01:36:01;;;;;;;11.70;9.97;;;;;;;;;;5072792;28;20421;-62
2023/04/20 01:38:29;;;;;;;11.30;10.30;;;;;;;;;;5072800;28;20484;-61
2023/04/20 01:40:55;;;;;;;11.47;10.40;;;;;;;;;;5072760;28;20410;-61
2023/04/20 01:43:21;;;;;;;10.77;9.70;;;;;;;;;;5072438;28;20470;-61
2023/04/20 01:45:47;;;;;;;10.43;9.33;;;;;;;;;;5072544;28;20402;-61
2023/04/20 01:48:13;;;;;;;9.90;8.97;;;;;;;;;;5072597;28;20860;-62
2023/04/20 01:50:42;;;;;;;10.53;9.53;;;;;;;;;;5072356;28;20531;-61
2023/04/20 01:53:08;;;;;;;11.33;10.20;;;;;;;;;;5072492;28;20913;-61
2023/04/20 01:55:34;;;;;;;10.50;9.50;;;;;;;;;;5072455;28;20445;-61
2023/04/20 01:58:03;;;;;;;9.70;8.80;;;;;;;;;;5071230;28;20500;-61
2023/04/20 02:00:29;;;;;;;12.47;8.70;;;;;;;;;;5072499;28;20438;-61
2023/04/20 02:02:54;;;;;;;9.03;8.23;;;;;;;;;;5072430;28;20823;-61
2023/04/20 02:05:20;;;;;;;10.50;9.47;;;;;;;;;;5072212;28;20402;-61
2023/04/20 02:07:46;;;;;;;8.67;7.97;;;;;;;;;;5072639;28;20834;-61
2023/04/20 02:10:12;;;;;;;8.90;8.20;;;;;;;;;;5071097;28;20483;-61
2023/04/20 02:12:38;;;;;;;20.93;9.50;;;;;;;;;;5072100;28;20438;-61
2023/04/20 02:15:05;;;;;;;9.03;8.30;;;;;;;;;;5072634;28;20834;-61
2023/04/20 02:17:31;;;;;;;8.07;7.60;;;;;;;;;;5077879;28;20413;-61
2023/04/20 02:19:57;;;;;;;8.80;8.10;;;;;;;;;;5093030;28;20422;-61
2023/04/20 02:22:23;;;;;;;9.60;7.70;;;;;;;;;;5071965;28;20505;-62
2023/04/20 02:24:49;;;;;;;8.83;7.37;;;;;;;;;;5072386;28;20449;-62
2023/04/20 02:27:15;;;;;;;6.97;6.43;;;;;;;;;;5071939;28;20421;-62
2023/04/20 02:29:41;;;;;;;8.30;7.60;;;;;;;;;;5071178;28;20715;-62
2023/04/20 02:32:07;;;;;;;6.27;5.87;;;;;;;;;;5072260;28;20496;-62
2023/04/20 02:34:33;;;;;;;6.13;5.73;;;;;;;;;;5072025;28;20491;-62
2023/04/20 02:36:59;;;;;;;6.07;5.60;;;;;;;;;;5072122;28;20418;-62
2023/04/20 02:39:25;;;;;;;6.60;6.03;;;;;;;;;;5070683;28;20449;-62
2023/04/20 02:41:51;;;;;;;5.47;5.07;;;;;;;;;;5072720;28;20948;-61
2023/04/20 02:44:17;;;;;;;5.77;5.37;;;;;;;;;;5076372;28;20471;-61
2023/04/20 02:46:43;;;;;;;6.00;5.63;;;;;;;;;;5076223;28;20406;-61
2023/04/20 02:49:09;;;;;;;5.70;5.40;;;;;;;;;;5076040;28;20771;-61
2023/04/20 02:51:35;;;;;;;7.63;5.73;;;;;;;;;;5076049;28;20438;-60
2023/04/20 02:54:02;;;;;;;7.00;5.33;;;;;;;;;;5076049;28;20565;-61
2023/04/20 02:56:28;;;;;;;5.63;5.23;;;;;;;;;;5076035;28;20434;-62
2023/04/20 02:58:54;;;;;;;5.23;4.70;;;;;;;;;;5075846;28;20430;-62
2023/04/20 03:01:20;;;;;;;4.87;4.67;;;;;;;;;;5075745;28;20453;-62
2023/04/20 03:03:46;;;;;;;6.00;5.60;;;;;;;;;;5076005;28;20433;-62
2023/04/20 03:06:17;;;;;;;5.90;5.60;;;;;;;;;;5075819;28;20497;-61
2023/04/20 03:08:42;;;;;;;5.53;5.23;;;;;;;;;;5075640;28;20931;-61
2023/04/20 03:11:08;;;;;;;7.10;5.93;;;;;;;;;;5074951;28;20373;-60
2023/04/20 03:13:35;;;;;;;5.00;4.70;;;;;;;;;;5073979;28;20450;-60
2023/04/20 03:16:01;;;;;;;5.33;5.03;;;;;;;;;;5075293;28;20422;-61
2023/04/20 03:18:27;;;;;;;5.50;5.20;;;;;;;;;;5075235;28;20437;-61
2023/04/20 03:20:53;;;;;;;6.07;5.57;;;;;;;;;;5075622;28;20409;-61
2023/04/20 03:23:19;;;;;;;5.17;4.90;;;;;;;;;;5074974;28;20473;-61
2023/04/20 03:25:45;;;;;;;5.43;5.13;;;;;;;;;;5074848;28;20417;-61
2023/04/20 03:28:11;;;;;;;5.33;5.03;;;;;;;;;;5075388;28;20460;-61
2023/04/20 03:30:39;;;;;;;6.53;5.50;;;;;;;;;;5074865;28;20868;-62
2023/04/20 03:33:05;;;;;;;5.27;5.07;;;;;;;;;;5075135;28;20604;-61
2023/04/20 03:35:31;;;;;;;5.17;4.97;;;;;;;;;;5074912;28;20952;-61
2023/04/20 03:37:57;;;;;;;5.73;5.47;;;;;;;;;;5075328;28;20487;-61
2023/04/20 03:40:23;;;;;;;6.03;5.40;;;;;;;;;;5075160;28;20464;-61
2023/04/20 03:42:49;;;;;;;6.07;5.67;;;;;;;;;;5073447;28;20476;-61
2023/04/20 03:45:16;;;;;;;5.27;4.87;;;;;;;;;;5074853;28;20825;-61
2023/04/20 03:47:42;;;;;;;5.83;5.43;;;;;;;;;;5074669;28;20851;-61
2023/04/20 03:50:08;;;;;;;5.90;5.60;;;;;;;;;;5072599;28;20461;-61
2023/04/20 03:52:34;;;;;;;5.50;5.30;;;;;;;;;;5074025;28;20977;-61
2023/04/20 03:55:00;;;;;;;8.97;5.50;;;;;;;;;;5075130;28;20384;-61
2023/04/20 03:57:26;;;;;;;6.70;5.20;;;;;;;;;;5074820;28;20521;-60
2023/04/20 03:59:52;;;;;;;5.73;4.80;;;;;;;;;;5074726;28;20476;-61
2023/04/20 04:02:18;;;;;;;5.80;5.40;;;;;;;;;;5074260;28;21013;-61
2023/04/20 04:04:44;;;;;;;6.80;6.10;;;;;;;;;;5074593;28;20385;-61
2023/04/20 04:07:10;;;;;;;6.63;6.13;;;;;;;;;;5074676;28;20774;-62
2023/04/20 04:09:36;;;;;;;7.60;6.53;;;;;;;;;;5074464;28;20900;-61
2023/04/20 04:12:03;;;;;;;8.47;7.53;;;;;;;;;;5074686;28;20410;-60
2023/04/20 04:14:29;;;;;;;8.57;6.37;;;;;;;;;;5074427;28;20410;-62
2023/04/20 04:16:55;;;;;;;9.63;6.97;;;;;;;;;;5074484;28;20437;-62
2023/04/20 04:19:21;;;;;;;10.30;6.60;;;;;;;;;;5073076;28;21045;-61
2023/04/20 04:21:47;;;;;;;29.03;18.63;;;;;;;;;;5072902;28;20443;-61
2023/04/20 04:24:14;;;;;;;9.40;8.27;;;;;;;;;;5074447;28;20395;-61
2023/04/20 04:26:40;;;;;;;9.50;7.40;;;;;;;;;;5073942;28;20433;-61
2023/04/20 04:29:06;;;;;;;8.37;6.50;;;;;;;;;;5074199;28;20418;-60
2023/04/20 04:31:34;;;;;;;6.43;5.83;;;;;;;;;;5074119;28;20445;-61
2023/04/20 04:34:03;;;;;;;5.97;5.53;;;;;;;;;;5074060;28;20889;-61
2023/04/20 04:36:31;;;;;;;13.57;7.10;;;;;;;;;;5073624;28;20416;-61
2023/04/20 04:38:58;;;;;;;10.13;6.90;;;;;;;;;;5073868;28;20381;-61
2023/04/20 04:41:26;;;;;;;7.57;6.97;;;;;;;;;;5072332;28;20509;-61
2023/04/20 04:43:52;;;;;;;6.10;5.60;;;;;;;;;;5073893;28;20490;-61
2023/04/20 04:46:18;;;;;;;6.43;5.83;;;;;;;;;;5073946;28;20513;-61
2023/04/20 04:48:45;;;;;;;5.90;5.57;;;;;;;;;;5073650;28;20396;-61
2023/04/20 04:51:11;;;;;;;6.60;6.00;;;;;;;;;;5073750;28;20471;-61
2023/04/20 04:53:37;;;;;;;6.57;5.93;;;;;;;;;;5073096;28;20442;-61
2023/04/20 04:56:06;;;;;;;7.50;5.40;;;;;;;;;;5073470;28;20428;-61
2023/04/20 04:58:34;;;;;;;6.00;5.53;;;;;;;;;;5073378;28;20454;-61
2023/04/20 05:01:00;;;;;;;6.60;6.00;;;;;;;;;;5073534;28;20388;-61
2023/04/20 05:03:26;;;;;;;65.27;38.87;;;;;;;;;;5073003;28;20952;-61
2023/04/20 05:05:52;;;;;;;6.77;6.27;;;;;;;;;;5072961;28;20369;-61
2023/04/20 05:08:18;;;;;;;8.03;6.40;;;;;;;;;;5073013;28;20401;-61
2023/04/20 05:10:47;;;;;;;5.83;5.33;;;;;;;;;;5073135;28;20564;-61
2023/04/20 05:13:13;;;;;;;11.97;8.20;;;;;;;;;;5072986;28;20385;-61
2023/04/20 05:15:39;;;;;;;6.97;6.37;;;;;;;;;;5073008;28;20417;-61
2023/04/20 05:18:05;;;;;;;6.83;6.33;;;;;;;;;;5072836;28;20415;-61
2023/04/20 05:20:31;;;;;;;6.27;5.30;;;;;;;;;;5073003;28;20392;-61
2023/04/20 05:22:57;;;;;;;6.90;6.40;;;;;;;;;;5072804;28;20534;-61
2023/04/20 05:25:23;;;;;;;6.40;5.80;;;;;;;;;;5072852;28;20422;-61
2023/04/20 05:27:49;;;;;;;9.63;5.90;;;;;;;;;;5072857;28;20402;-61
2023/04/20 05:30:15;;;;;;;7.23;6.63;;;;;;;;;;5071250;28;20414;-61
2023/04/20 05:32:41;;;;;;;6.10;5.60;;;;;;;;;;5072756;28;20617;-61
2023/04/20 05:35:07;;;;;;;10.13;6.73;;;;;;;;;;5073134;28;20445;-61
2023/04/20 05:37:33;;;;;;;9.07;5.87;;;;;;;;;;5072607;28;20423;-61
2023/04/20 05:39:59;;;;;;;6.53;6.13;;;;;;;;;;5072440;28;20477;-61
2023/04/20 05:42:25;;;;;;;7.00;6.50;;;;;;;;;;5072559;28;20437;-60
2023/04/20 05:44:51;;;;;;;14.17;7.10;;;;;;;;;;5072560;28;20380;-61
2023/04/20 05:47:20;;;;;;;8.73;7.23;;;;;;;;;;5072498;28;20409;-61
2023/04/20 05:49:46;;;;;;;8.57;7.07;;;;;;;;;;5072540;28;20406;-60
2023/04/20 05:52:14;;;;;;;7.43;6.73;;;;;;;;;;5072311;28;20504;-60
2023/04/20 05:54:40;;;;;;;7.90;7.10;;;;;;;;;;5071419;28;20921;-59
2023/04/20 05:57:06;;;;;;;7.17;6.47;;;;;;;;;;5072185;28;20484;-59
2023/04/20 05:59:32;;;;;;;7.03;6.47;;;;;;;;;;5072072;28;20436;-60
2023/04/20 06:01:58;;;;;;;8.90;6.53;;;;;;;;;;5071941;28;20525;-60
2023/04/20 06:04:24;;;;;;;7.53;6.83;;;;;;;;;;5072150;28;20475;-60
2023/04/20 06:06:50;;;;;;;8.43;6.10;;;;;;;;;;5072687;28;20485;-60
2023/04/20 06:09:19;;;;;;;7.57;6.83;;;;;;;;;;5072159;28;20917;-60
2023/04/20 06:11:45;;;;;;;7.47;6.87;;;;;;;;;;5072045;28;20944;-60
2023/04/20 06:14:12;;;;;;;6.13;5.80;;;;;;;;;;5072137;28;20407;-60
2023/04/20 06:16:38;;;;;;;6.10;5.77;;;;;;;;;;5071436;28;20491;-59
2023/04/20 06:19:07;;;;;;;9.40;5.77;;;;;;;;;;5071228;28;20541;-60
2023/04/20 06:21:36;;;;;;;6.90;6.50;;;;;;;;;;5072394;28;20444;-60
2023/04/20 06:24:02;;;;;;;6.77;6.13;;;;;;;;;;5072584;28;20427;-60
2023/04/20 06:26:28;;;;;;;7.07;6.47;;;;;;;;;;5072359;28;20433;-60
2023/04/20 06:28:54;;;;;;;6.67;6.17;;;;;;;;;;5072476;28;20418;-60
2023/04/20 06:31:20;;;;;;;7.13;6.50;;;;;;;;;;5072229;28;20438;-59
2023/04/20 06:33:49;;;;;;;7.13;6.40;;;;;;;;;;5072450;28;20448;-59
2023/04/20 06:36:15;;;;;;;8.90;7.97;;;;;;;;;;5072348;28;20865;-59
2023/04/20 06:38:41;;;;;;;8.83;7.63;;;;;;;;;;5072444;28;20409;-59
2023/04/20 06:41:07;;;;;;;7.63;7.03;;;;;;;;;;5072422;28;20877;-59
2023/04/20 06:43:33;;;;;;;6.60;6.20;;;;;;;;;;5072282;28;20444;-59
2023/04/20 06:45:59;;;;;;;8.47;7.77;;;;;;;;;;5071035;28;20517;-59
2023/04/20 06:48:25;;;;;;;9.30;7.90;;;;;;;;;;5072148;28;20421;-58
2023/04/20 06:50:53;;;;;;;7.70;7.13;;;;;;;;;;5072578;28;20883;-59
2023/04/20 06:53:19;;;;;;;7.97;7.20;;;;;;;;;;5072152;28;20807;-59
2023/04/20 06:55:45;;;;;;;11.83;7.40;;;;;;;;;;5072339;28;20418;-59
2023/04/20 06:58:11;;;;;;;7.40;6.70;;;;;;;;;;5072112;28;20552;-59
2023/04/20 07:00:37;;;;;;;10.87;8.27;;;;;;;;;;5070777;28;20425;-59
2023/04/20 07:03:03;;;;;;;7.33;6.60;;;;;;;;;;5072241;28;20722;-58
2023/04/20 07:05:29;;;;;;;7.57;6.87;;;;;;;;;;5070887;28;20496;-58
2023/04/20 07:08:04;;;;;;;7.97;7.27;;;;;;;;;;5072197;28;20434;-59
2023/04/20 07:10:33;;;;;;;7.80;7.10;;;;;;;;;;5072147;28;20467;-58
2023/04/20 07:12:59;;;;;;;8.17;7.20;;;;;;;;;;5072015;28;20437;-59
2023/04/20 07:15:27;;;;;;;7.53;6.83;;;;;;;;;;5072144;28;20849;-59
2023/04/20 07:17:53;;;;;;;7.47;6.90;;;;;;;;;;5072063;28;20926;-58
2023/04/20 07:20:24;;;;;;;10.93;7.77;;;;;;;;;;5071981;28;20414;-58
2023/04/20 07:22:50;;;;;;;7.27;6.70;;;;;;;;;;5071797;28;20791;-58
2023/04/20 07:25:16;;;;;;;7.30;6.60;;;;;;;;;;5070570;28;20417;-58
2023/04/20 07:27:42;;;;;;;8.37;7.00;;;;;;;;;;5073181;28;20465;-58
2023/04/20 07:30:12;;;;;;;7.03;6.53;;;;;;;;;;5075657;28;20898;-58
2023/04/20 07:32:38;;;;;;;11.70;7.47;;;;;;;;;;5075409;28;20442;-58
2023/04/20 07:35:04;;;;;;;8.40;6.53;;;;;;;;;;5075714;28;20939;-58
2023/04/20 07:37:31;;;;;;;7.70;6.90;;;;;;;;;;5075521;28;20865;-58
2023/04/20 07:39:56;;;;;;;6.80;6.10;;;;;;;;;;5075624;28;20412;-56
2023/04/20 07:42:22;;;;;;;8.57;5.90;;;;;;;;;;5075477;28;20477;-58
2023/04/20 07:44:49;;;;;;;6.97;6.57;;;;;;;;;;5075211;28;20403;-59
2023/04/20 07:47:15;;;;;;;7.63;7.00;;;;;;;;;;5074195;28;20409;-59
2023/04/20 07:49:43;;;;;;;12.90;7.40;;;;;;;;;;5075515;28;20826;-59
2023/04/20 07:52:09;;;;;;;10.33;7.07;;;;;;;;;;5075367;28;20418;-58
2023/04/20 07:54:35;;;;;;;7.53;6.70;;;;;;;;;;5075434;28;20425;-58
2023/04/20 07:57:02;;;;;;;7.83;7.13;;;;;;;;;;5075589;28;20391;-58
2023/04/20 07:59:28;;;;;;;8.10;7.30;;;;;;;;;;5075287;28;20445;-58
2023/04/20 08:01:59;;;;;;;7.90;7.20;;;;;;;;;;5074777;28;20510;-59
2023/04/20 08:04:25;;;;;;;8.00;7.30;;;;;;;;;;5075452;28;20449;-60
2023/04/20 08:06:51;;;;;;;7.80;7.20;;;;;;;;;;5074991;28;20905;-58
2023/04/20 08:09:17;;;;;;;8.63;7.37;;;;;;;;;;5075110;28;20422;-58
2023/04/20 08:11:45;;;;;;;12.40;7.30;;;;;;;;;;5074940;28;20414;-58
2023/04/20 08:14:11;;;;;;;7.53;6.87;;;;;;;;;;5074907;28;20434;-59
2023/04/20 08:16:37;;;;;;;9.70;7.00;;;;;;;;;;5074906;28;20802;-59
2023/04/20 08:19:08;;;;;;;8.07;7.37;;;;;;;;;;5074855;28;20487;-59
2023/04/20 08:21:35;;;;;;;8.17;7.57;;;;;;;;;;5074773;28;20888;-59
2023/04/20 08:24:03;;;;;;;9.80;6.97;;;;;;;;;;5074748;28;20425;-59
2023/04/20 08:26:29;;;;;;;7.40;6.90;;;;;;;;;;5073435;28;20410;-59
2023/04/20 08:28:58;;;;;;;7.80;7.10;;;;;;;;;;5074629;28;20440;-59
2023/04/20 08:31:24;;;;;;;7.63;7.13;;;;;;;;;;5074729;28;20489;-59
2023/04/20 08:33:50;;;;;;;13.93;7.60;;;;;;;;;;5074494;28;20437;-59
2023/04/20 08:36:16;;;;;;;10.73;7.30;;;;;;;;;;5074594;28;20412;-59
2023/04/20 08:38:43;;;;;;;8.80;7.07;;;;;;;;;;5072297;28;20509;-59
2023/04/20 08:41:12;;;;;;;8.13;7.37;;;;;;;;;;5074416;28;20412;-59
2023/04/20 08:43:38;;;;;;;7.10;6.60;;;;;;;;;;5074339;28;20521;-59
2023/04/20 08:46:04;;;;;;;10.23;6.90;;;;;;;;;;5074439;28;20946;-59
2023/04/20 08:48:34;;;;;;;10.23;8.57;;;;;;;;;;5074508;28;20409;-59
2023/04/20 08:51:03;;;;;;;7.60;6.90;;;;;;;;;;5074310;28;20413;-60
2023/04/20 08:53:30;;;;;;;7.60;7.00;;;;;;;;;;5074315;28;20521;-60
2023/04/20 08:55:56;;;;;;;7.50;7.00;;;;;;;;;;5074176;28;20406;-60
2023/04/20 08:58:28;;;;;;;7.57;6.97;;;;;;;;;;5074072;28;20531;-59
2023/04/20 09:00:54;;;;;;;7.50;7.00;;;;;;;;;;5074504;28;20424;-59
2023/04/20 09:03:40;;;;;;;8.27;7.57;;;;;;;;;;5073975;28;20992;-58
2023/04/20 09:06:14;;;;;;;8.53;7.83;;;;;;;;;;5073802;28;20467;-58
2023/04/20 09:08:41;;;;;;;7.30;6.80;;;;;;;;;;5073965;28;20461;-60
2023/04/20 09:11:07;;;;;;;10.67;7.07;;;;;;;;;;5074017;28;20406;-60
2023/04/20 09:13:36;;;;;;;6.67;6.27;;;;;;;;;;5073924;28;21016;-58
2023/04/20 09:16:11;;;;;;;10.67;7.00;;;;;;;;;;5073627;28;20461;-57
2023/04/20 09:18:38;;;;;;;7.97;7.30;;;;;;;;;;5073595;28;20434;-57
2023/04/20 09:21:07;;;;;;;6.10;5.70;;;;;;;;;;5072110;28;20488;-57
2023/04/20 09:23:33;;;;;;;6.87;6.37;;;;;;;;;;5073486;28;20499;-57
2023/04/20 09:25:59;;;;;;;7.13;6.53;;;;;;;;;;5073541;28;20410;-60
2023/04/20 09:28:34;;;;;;;6.93;6.43;;;;;;;;;;5073565;28;20797;-58
2023/04/20 09:31:00;;;;;;;6.30;6.00;;;;;;;;;;5073382;28;20416;-58
2023/04/20 09:33:29;;;;;;;6.70;6.20;;;;;;;;;;5073515;28;20410;-59
2023/04/20 09:36:02;;;;;;;6.40;6.10;;;;;;;;;;5073528;28;20410;-59
2023/04/20 09:38:30;;;;;;;6.03;5.73;;;;;;;;;;5073455;28;20481;-59
2023/04/20 09:41:00;;;;;;;5.87;5.57;;;;;;;;;;5073183;28;20422;-59
2023/04/20 09:43:27;;;;;;;6.53;6.00;;;;;;;;;;5071767;28;20476;-58
2023/04/20 09:45:56;;;;;;;8.50;5.47;;;;;;;;;;5073246;28;20483;-59
2023/04/20 09:48:22;;;;;;;5.07;4.87;;;;;;;;;;5073566;28;20438;-59
2023/04/20 09:50:49;;;;;;;5.70;5.30;;;;;;;;;;5072948;28;20822;-59
2023/04/20 09:53:16;;;;;;;7.53;5.43;;;;;;;;;;5073278;28;20504;-59
2023/04/20 09:55:51;;;;;;;4.50;4.23;;;;;;;;;;5071886;28;20421;-60
2023/04/20 09:58:19;;;;;;;5.27;4.97;;;;;;;;;;5072902;28;20492;-60
2023/04/20 10:00:47;;;;;;;5.77;5.13;;;;;;;;;;5072726;28;20497;-60
2023/04/20 10:03:18;;;;;;;5.37;5.03;;;;;;;;;;5072954;28;20479;-60
2023/04/20 10:05:45;;;;;;;5.40;4.90;;;;;;;;;;5073080;28;20831;-60
2023/04/20 10:08:11;;;;;;;6.20;4.47;;;;;;;;;;5074804;28;20418;-59
2023/04/20 10:10:44;;;;;;;5.87;4.90;;;;;;;;;;5074750;28;20414;-59
2023/04/20 10:13:10;;;;;;;4.33;4.20;;;;;;;;;;5074343;28;20798;-59
2023/04/20 10:15:40;;;;;;;6.73;4.97;;;;;;;;;;5074307;28;20492;-59
2023/04/20 10:18:23;;;;;;;14.90;11.40;;;;;;;;;;5072755;28;20520;-59
2023/04/20 10:20:49;;;;;;;10.33;9.30;;;;;;;;;;5074260;28;20414;-60
2023/04/20 10:23:17;;;;;;;7.10;6.60;;;;;;;;;;5074628;28;20630;-60
2023/04/20 10:25:44;;;;;;;8.13;5.20;;;;;;;;;;5074244;28;20441;-59
2023/04/20 10:28:10;;;;;;;4.33;4.13;;;;;;;;;;5073114;28;20896;-59
2023/04/20 10:30:40;;;;;;;3.90;3.70;;;;;;;;;;5072549;28;20414;-59
2023/04/20 10:33:07;;;;;;;4.40;4.20;;;;;;;;;;5072622;28;20418;-59
2023/04/20 10:35:42;;;;;;;4.50;4.10;;;;;;;;;;5072309;28;20429;-59
2023/04/20 10:38:10;;;;;;;5.10;4.63;;;;;;;;;;5071781;28;20413;-59
2023/04/20 10:40:39;;;;;;;4.80;4.50;;;;;;;;;;5070860;28;20793;-60
2023/04/20 10:43:17;;;;;;;3.80;3.60;;;;;;;;;;5072480;28;20457;-60
2023/04/20 10:45:43;;;;;;;4.40;3.83;;;;;;;;;;5071141;28;20440;-60
2023/04/20 10:48:09;;;;;;;10.57;3.70;;;;;;;;;;5072205;28;20897;-60
2023/04/20 10:50:36;;;;;;;4.13;3.90;;;;;;;;;;5072296;28;20487;-58
2023/04/20 10:53:03;;;;;;;3.87;3.60;;;;;;;;;;5072310;28;20814;-58
2023/04/20 10:55:29;;;;;;;3.40;3.30;;;;;;;;;;5072177;28;20467;-58
2023/04/20 10:57:55;;;;;;;3.20;3.10;;;;;;;;;;5072163;28;20941;-58
2023/04/20 11:00:26;;;;;;;3.73;3.17;;;;;;;;;;5070933;28;20990;-58
2023/04/20 11:02:53;;;;;;;3.00;2.90;;;;;;;;;;5074059;28;20468;-59
2023/04/20 11:05:19;;;;;;;2.90;2.90;;;;;;;;;;5076277;28;20801;-58
2023/04/20 11:07:52;;;;;;;2.97;2.87;;;;;;;;;;5076296;28;20418;-58
2023/04/20 11:10:20;;;;;;;3.10;2.90;;;;;;;;;;5075994;28;20810;-58
2023/04/20 11:12:49;;;;;;;4.10;3.03;;;;;;;;;;5075212;28;20418;-58
2023/04/20 11:15:16;;;;;;;3.30;3.00;;;;;;;;;;5075982;28;20434;-58
2023/04/20 11:17:42;;;;;;;2.87;2.70;;;;;;;;;;5076079;28;20917;-58
2023/04/20 11:20:09;;;;;;;2.50;2.50;;;;;;;;;;5075758;28;20443;-58
2023/04/20 11:22:38;;;;;;;3.03;2.93;;;;;;;;;;5075681;28;20465;-59
2023/04/20 11:25:10;;;;;;;3.20;2.90;;;;;;;;;;5076067;28;20453;-58
2023/04/20 11:27:37;;;;;;;3.90;2.87;;;;;;;;;;5075743;28;20406;-58
2023/04/20 11:30:07;;;;;;;2.40;2.30;;;;;;;;;;5075895;28;20806;-58
2023/04/20 11:32:34;;;;;;;2.60;2.60;;;;;;;;;;5075664;28;20417;-59
2023/04/20 11:35:08;;;;;;;3.30;3.10;;;;;;;;;;5075786;28;20438;-59
2023/04/20 11:37:56;;;;;;;3.20;3.00;;;;;;;;;;5075603;28;20433;-58
2023/04/20 11:40:22;;;;;;;4.70;2.70;;;;;;;;;;5075480;28;20442;-58
2023/04/20 11:42:51;;;;;;;4.60;4.40;;;;;;;;;;5075479;28;20469;-58
2023/04/20 11:45:17;;;;;;;5.53;5.10;;;;;;;;;;5075531;28;20491;-58
2023/04/20 11:47:45;;;;;;;3.07;2.73;;;;;;;;;;5075253;28;20418;-58
2023/04/20 11:50:12;;;;;;;2.40;2.40;;;;;;;;;;5075753;28;20808;-58
2023/04/20 11:52:38;;;;;;;2.87;2.77;;;;;;;;;;5075271;28;20426;-58
2023/04/20 11:55:04;;;;;;;3.60;3.47;;;;;;;;;;5074682;28;20850;-59
2023/04/20 11:57:30;;;;;;;3.50;3.30;;;;;;;;;;5075198;28;20449;-58
2023/04/20 11:59:56;;;;;;;3.47;2.77;;;;;;;;;;5075202;28;20484;-59
2023/04/20 12:02:25;;;;;;;2.40;2.30;;;;;;;;;;5075175;28;20971;-60
2023/04/20 12:04:51;;;;;;;2.27;2.27;;;;;;;;;;5075176;28;20501;-60
2023/04/20 12:07:21;;;;;;;3.43;3.27;;;;;;;;;;5075189;28;20885;-60
2023/04/20 12:09:47;;;;;;;9.03;2.80;;;;;;;;;;5075209;28;20962;-58
2023/04/20 12:12:13;;;;;;;2.10;2.10;;;;;;;;;;5075054;28;20421;-58
2023/04/20 12:14:40;;;;;;;2.80;2.60;;;;;;;;;;5073517;28;20508;-57
2023/04/20 12:17:05;;;;;;;4.60;2.53;;;;;;;;;;5075328;28;20394;-58
2023/04/20 12:19:32;;;;;;;2.50;2.40;;;;;;;;;;5074837;28;20428;-58
2023/04/20 12:21:57;;;;;;;2.83;2.73;;;;;;;;;;5074887;28;20458;-60
2023/04/20 12:24:24;;;;;;;3.00;2.90;;;;;;;;;;5074662;28;20429;-59
2023/04/20 12:26:50;;;;;;;3.10;3.00;;;;;;;;;;5074557;28;20410;-58
2023/04/20 12:29:16;;;;;;;2.60;2.57;;;;;;;;;;5074746;28;20428;-59
2023/04/20 12:31:42;;;;;;;2.60;2.60;;;;;;;;;;5074632;28;20451;-58
2023/04/20 12:34:10;;;;;;;2.60;2.60;;;;;;;;;;5074809;28;20406;-60
2023/04/20 12:36:36;;;;;;;3.00;2.90;;;;;;;;;;5074489;28;20457;-60
2023/04/20 12:39:03;;;;;;;2.73;2.63;;;;;;;;;;5074531;28;20450;-60
2023/04/20 12:41:29;;;;;;;2.83;2.70;;;;;;;;;;5074531;28;20908;-60
2023/04/20 12:43:55;;;;;;;3.97;2.33;;;;;;;;;;5074287;28;20961;-58
2023/04/20 12:46:21;;;;;;;2.50;2.40;;;;;;;;;;5074029;28;20464;-58
2023/04/20 12:48:47;;;;;;;3.23;2.60;;;;;;;;;;5073879;28;20502;-57
2023/04/20 12:51:14;;;;;;;2.23;2.23;;;;;;;;;;5073634;28;20502;-57
2023/04/20 12:53:40;;;;;;;2.07;2.00;;;;;;;;;;5073903;28;20430;-57
2023/04/20 12:56:06;;;;;;;1.83;1.73;;;;;;;;;;5073893;28;20438;-57
2023/04/20 12:58:32;;;;;;;1.90;1.80;;;;;;;;;;5073539;28;20465;-57
2023/04/20 13:00:58;;;;;;;1.50;1.50;;;;;;;;;;5073705;28;20447;-56
2023/04/20 13:03:27;;;;;;;1.50;1.50;;;;;;;;;;5073769;28;20466;-57
2023/04/20 13:05:53;;;;;;;1.27;1.27;;;;;;;;;;5073376;28;20431;-56
2023/04/20 13:08:19;;;;;;;1.40;1.40;;;;;;;;;;5073617;28;20408;-57
2023/04/20 13:10:45;;;;;;;1.60;1.60;;;;;;;;;;5073144;28;20430;-56
2023/04/20 13:13:12;;;;;;;1.00;1.00;;;;;;;;;;5073680;28;20479;-57
2023/04/20 13:15:38;;;;;;;2.17;0.80;;;;;;;;;;5073525;28;20443;-58
2023/04/20 13:18:04;;;;;;;2.10;1.17;;;;;;;;;;5073453;28;20777;-57
2023/04/20 13:20:30;;;;;;;0.90;0.90;;;;;;;;;;5073845;28;20523;-56
2023/04/20 13:22:57;;;;;;;0.90;0.90;;;;;;;;;;5073492;28;20456;-56
2023/04/20 13:25:23;;;;;;;0.60;0.60;;;;;;;;;;5073045;28;20416;-57
2023/04/20 13:27:53;;;;;;;0.90;0.90;;;;;;;;;;5073394;28;20507;-57
2023/04/20 13:30:19;;;;;;;0.70;0.70;;;;;;;;;;5073237;28;20434;-57
2023/04/20 13:32:45;;;;;;;0.50;0.50;;;;;;;;;;5073245;28;20936;-55
2023/04/20 13:35:13;;;;;;;0.70;0.70;;;;;;;;;;5072984;28;20420;-56
2023/04/20 13:37:40;;;;;;;1.73;1.73;;;;;;;;;;5073462;28;20473;-58
2023/04/20 13:40:06;;;;;;;1.03;0.80;;;;;;;;;;5073168;28;20477;-56
2023/04/20 13:42:32;;;;;;;1.23;1.23;;;;;;;;;;5072909;28;21036;-58
2023/04/20 13:44:58;;;;;;;0.80;0.80;;;;;;;;;;5072973;28;20553;-58
2023/04/20 13:47:24;;;;;;;1.00;1.00;;;;;;;;;;5072981;28;20410;-58
2023/04/20 13:49:53;;;;;;;0.70;0.70;;;;;;;;;;5072765;28;20412;-57
2023/04/20 13:52:19;;;;;;;0.60;0.60;;;;;;;;;;5072557;28;20429;-58
2023/04/20 13:54:45;;;;;;;0.60;0.60;;;;;;;;;;5072936;28;20424;-57
2023/04/20 13:57:11;;;;;;;1.03;0.80;;;;;;;;;;5072490;28;20437;-57
2023/04/20 13:59:37;;;;;;;1.07;1.07;;;;;;;;;;5072898;28;20436;-58
2023/04/20 14:02:03;;;;;;;1.03;1.03;;;;;;;;;;5072588;28;20472;-56
2023/04/20 14:04:32;;;;;;;0.70;0.70;;;;;;;;;;5072746;28;20982;-58
2023/04/20 14:06:58;;;;;;;0.70;0.70;;;;;;;;;;5072447;28;20440;-58
2023/04/20 14:09:24;;;;;;;0.90;0.90;;;;;;;;;;5072711;28;20408;-58
2023/04/20 14:11:50;;;;;;;0.60;0.60;;;;;;;;;;5072464;28;20466;-58
2023/04/20 14:14:16;;;;;;;1.30;1.20;;;;;;;;;;5072700;28;20413;-59
2023/04/20 14:16:46;;;;;;;0.97;0.97;;;;;;;;;;5072609;28;20432;-58
2023/04/20 14:19:12;;;;;;;0.90;0.90;;;;;;;;;;5072603;28;20448;-58
2023/04/20 14:21:39;;;;;;;0.80;0.80;;;;;;;;;;5071192;28;20480;-58
2023/04/20 14:24:05;;;;;;;0.63;0.63;;;;;;;;;;5072394;28;20492;-62
2023/04/20 14:26:32;;;;;;;0.80;0.80;;;;;;;;;;5072246;28;20444;-58
2023/04/20 14:28:58;;;;;;;0.70;0.70;;;;;;;;;;5072446;28;20405;-58
2023/04/20 14:31:24;;;;;;;0.50;0.50;;;;;;;;;;5072065;28;20999;-58
2023/04/20 14:33:52;;;;;;;4.47;3.57;;;;;;;;;;5071491;28;20408;-58
2023/04/20 14:36:18;;;;;;;2.80;2.67;;;;;;;;;;5071680;28;20503;-58
2023/04/20 14:38:44;;;;;;;2.00;1.90;;;;;;;;;;5071997;28;20411;-58